アトランタ の空港の天気 - METARとTAF

ハーツフィールド・ジャクソン・アトランタ国際空港 ( KATL / ATL ) - アメリカ ジョージア州アトランタ
飛行場実況気象(Metar)
観測時間01/29 02:52 EST (01/29 07:52 UTC)
風向・風速北西 8m/s 瞬間風速16m/s
視程10km以上
天気現象
少しの雲 雲底高度 760m
全天の8割程度の雲 雲底高度 1490m
全天の8割程度の雲 雲底高度 1830m
気温-1.1℃
湿度60%
気圧1018.4hPa
METARKATL 290752Z 31016G32KT 10SM FEW025 BKN049 BKN060 M01/M08 A3005 RMK AO2 PK WND 32032/0747 SLP184 T10111078
過去の天気等 Google飛行場航空写真 Wunderground天気予報

過去48時間のMETAR

飛行場予報(TAF)
発表時間: 1/29 02:30 EST (1/29 07:30 UTC)
予報対象時間: 29日3時 EST ~ 30日7時 EST
風向・風速北西 8m/s 瞬間風速 13m/s
視程10km以上
少しの雲 雲底高度 610m
全天の8割程度の雲 雲底高度 1830m
29日5時 EST から
風向・風速北西 9m/s 瞬間風速 15m/s
視程10km以上
全天の4割程度の雲 雲底高度 910m
29日10時 EST から
風向・風速北西 9m/s 瞬間風速 15m/s
視程10km以上
なし
29日16時 EST から
風向・風速北西 6m/s 瞬間風速 10m/s
視程10km以上
なし
29日20時 EST から
風向・風速西北西 3m/s
視程10km以上
なし
30日4時 EST から
風向・風速西南西 2m/s
視程10km以上
なし
KATL 290730Z 2908/3012 32015G25KT P6SM FEW020 BKN060
FM291000 32018G30KT P6SM SCT030
FM291500 32018G30KT P6SM SKC
FM292100 32012G20KT P6SM SKC
FM300100 29005KT P6SM SKC
FM300900 24004KT P6SM SKC